createdAt,value
2023-05-24T00:02:13.973Z,8.40
2023-05-24T00:04:42.081Z,8.40
2023-05-24T00:07:08.971Z,8.40
2023-05-24T00:09:35.786Z,8.30
2023-05-24T00:12:02.547Z,8.30
2023-05-24T00:14:29.329Z,8.20
2023-05-24T00:16:56.145Z,8.20
2023-05-24T00:19:23.107Z,8.20
2023-05-24T00:21:50.003Z,8.10
2023-05-24T00:24:17.574Z,8.10
2023-05-24T00:26:44.997Z,8.00
2023-05-24T00:29:11.898Z,8.00
2023-05-24T00:31:38.744Z,8.00
2023-05-24T00:34:05.923Z,8.00
2023-05-24T00:36:34.062Z,7.90
2023-05-24T00:39:01.004Z,8.00
2023-05-24T00:41:27.820Z,8.00
2023-05-24T00:43:54.799Z,8.00
2023-05-24T00:46:28.174Z,8.00
2023-05-24T00:48:55.712Z,7.90
2023-05-24T00:51:22.863Z,7.90
2023-05-24T00:53:50.343Z,7.80
2023-05-24T00:56:17.728Z,7.80
2023-05-24T00:58:46.652Z,7.70
2023-05-24T01:01:14.282Z,7.70
2023-05-24T01:03:41.526Z,7.70
2023-05-24T01:06:09.192Z,7.70
2023-05-24T01:08:43.379Z,7.70
2023-05-24T01:11:27.469Z,7.60
2023-05-24T01:14:14.279Z,7.70
2023-05-24T01:16:51.965Z,7.60
2023-05-24T01:19:52.364Z,7.60
2023-05-24T01:23:03.281Z,7.70
2023-05-24T01:26:09.561Z,7.70
2023-05-24T01:28:36.495Z,7.70
2023-05-24T01:31:04.469Z,7.80
2023-05-24T01:33:32.235Z,7.80
2023-05-24T01:35:59.040Z,7.80
2023-05-24T01:38:25.806Z,7.80
2023-05-24T01:40:59.253Z,7.80
2023-05-24T01:43:34.857Z,7.80
2023-05-24T01:46:37.258Z,7.80
2023-05-24T01:49:20.313Z,7.80
2023-05-24T01:52:00.317Z,7.80
2023-05-24T01:54:34.205Z,7.70
2023-05-24T01:57:05.663Z,7.70
2023-05-24T01:59:33.924Z,7.60
2023-05-24T02:02:01.536Z,7.60
2023-05-24T02:04:28.688Z,7.60
2023-05-24T02:06:55.500Z,7.70
2023-05-24T02:09:22.250Z,7.70
2023-05-24T02:11:48.983Z,7.60
2023-05-24T02:14:17.215Z,7.60
2023-05-24T02:16:46.568Z,7.60
2023-05-24T02:19:17.355Z,7.60
2023-05-24T02:21:44.240Z,7.70
2023-05-24T02:24:14.924Z,7.70
2023-05-24T02:26:43.125Z,7.80
2023-05-24T02:29:09.900Z,7.90
2023-05-24T02:31:37.021Z,7.90
2023-05-24T02:34:03.924Z,8.00
2023-05-24T02:36:32.535Z,8.00
2023-05-24T02:38:59.295Z,8.10
2023-05-24T02:41:26.439Z,8.10
2023-05-24T02:43:53.189Z,8.20
2023-05-24T02:46:20.019Z,8.40
2023-05-24T02:48:46.800Z,8.40
2023-05-24T02:51:13.564Z,8.50
2023-05-24T02:53:43.326Z,8.50
2023-05-24T02:56:11.268Z,8.50
2023-05-24T02:58:40.407Z,8.50
2023-05-24T03:01:08.463Z,8.60
2023-05-24T03:03:35.444Z,8.60
2023-05-24T03:06:02.277Z,8.60
2023-05-24T03:08:29.056Z,8.60
2023-05-24T03:10:55.790Z,8.60
2023-05-24T03:13:22.581Z,8.60
2023-05-24T03:15:49.448Z,8.70
2023-05-24T03:18:16.438Z,8.70
2023-05-24T03:20:43.439Z,8.70
2023-05-24T03:23:10.447Z,8.70
2023-05-24T03:25:37.847Z,8.70
2023-05-24T03:28:04.712Z,8.70
2023-05-24T03:30:31.455Z,8.60
2023-05-24T03:32:58.255Z,8.70
2023-05-24T03:35:25.094Z,8.70
2023-05-24T03:37:51.861Z,8.60
2023-05-24T03:40:19.025Z,8.60
2023-05-24T03:42:47.277Z,8.60
2023-05-24T03:45:16.092Z,8.50
2023-05-24T03:47:46.293Z,8.50
2023-05-24T03:50:16.498Z,8.50
2023-05-24T03:52:43.608Z,8.40
2023-05-24T03:55:13.836Z,8.40
2023-05-24T03:57:41.973Z,8.40
2023-05-24T04:00:12.621Z,8.40
2023-05-24T04:02:39.554Z,8.40
2023-05-24T04:05:09.583Z,8.40
2023-05-24T04:07:37.374Z,8.50
2023-05-24T04:10:06.856Z,8.50
2023-05-24T04:12:34.141Z,8.50
2023-05-24T04:15:01.220Z,8.50
2023-05-24T04:17:30.287Z,8.50
2023-05-24T04:19:57.229Z,8.40
2023-05-24T04:22:25.754Z,8.40
2023-05-24T04:24:53.023Z,8.40
2023-05-24T04:27:20.448Z,8.30
2023-05-24T04:29:49.733Z,8.30
2023-05-24T04:32:17.767Z,8.30
2023-05-24T04:34:46.334Z,8.30
2023-05-24T04:37:17.220Z,8.30
2023-05-24T04:39:45.172Z,8.30
2023-05-24T04:42:13.038Z,8.30
2023-05-24T04:44:43.186Z,8.30
2023-05-24T04:47:10.642Z,8.30
2023-05-24T04:49:37.689Z,8.30
2023-05-24T04:52:04.897Z,8.40
2023-05-24T04:54:31.912Z,8.30
2023-05-24T04:56:58.651Z,8.30
2023-05-24T04:59:25.495Z,8.40
2023-05-24T05:01:52.347Z,8.40
2023-05-24T05:04:19.486Z,8.40
2023-05-24T05:06:46.377Z,8.50
2023-05-24T05:09:14.685Z,8.40
2023-05-24T05:11:41.963Z,8.40
2023-05-24T05:14:11.744Z,8.30
2023-05-24T05:16:39.368Z,8.30
2023-05-24T05:19:06.195Z,8.40
2023-05-24T05:21:34.080Z,8.40
2023-05-24T05:24:01.688Z,8.40
2023-05-24T05:26:29.255Z,8.40
2023-05-24T05:28:57.285Z,8.50
2023-05-24T05:31:24.608Z,8.50
2023-05-24T05:33:51.621Z,8.60
2023-05-24T05:36:18.788Z,8.70
2023-05-24T05:38:45.628Z,8.70
2023-05-24T05:41:12.469Z,8.80
2023-05-24T05:43:39.496Z,8.80
2023-05-24T05:46:06.822Z,8.90
2023-05-24T05:48:33.706Z,8.90
2023-05-24T05:51:00.547Z,9.00
2023-05-24T05:53:27.367Z,9.10
2023-05-24T05:55:54.258Z,9.20
2023-05-24T05:58:21.047Z,9.20
2023-05-24T06:00:47.885Z,9.30
2023-05-24T06:03:14.785Z,9.30
2023-05-24T06:05:42.036Z,9.20
2023-05-24T06:08:08.887Z,9.10
2023-05-24T06:10:37.818Z,9.20
2023-05-24T06:13:04.801Z,9.10
2023-05-24T06:15:33.271Z,9.20
2023-05-24T06:18:02.004Z,9.30
2023-05-24T06:20:28.918Z,9.20
2023-05-24T06:22:56.985Z,9.30
2023-05-24T06:25:24.324Z,9.40
2023-05-24T06:27:51.749Z,9.40
2023-05-24T06:30:18.940Z,9.30
2023-05-24T06:32:46.961Z,9.30
2023-05-24T06:35:14.226Z,9.40
2023-05-24T06:37:40.997Z,9.50
2023-05-24T06:40:09.644Z,9.50
2023-05-24T06:42:37.119Z,9.60
2023-05-24T06:45:04.469Z,9.70
2023-05-24T06:47:31.385Z,9.80
2023-05-24T06:49:58.308Z,9.80
2023-05-24T06:52:25.293Z,9.90
2023-05-24T06:54:52.788Z,9.90
2023-05-24T06:57:19.571Z,9.80
2023-05-24T06:59:46.368Z,9.80
2023-05-24T07:02:13.497Z,9.90
2023-05-24T07:04:43.223Z,9.90
2023-05-24T07:07:13.004Z,10.00
2023-05-24T07:09:42.029Z,10.00
2023-05-24T07:12:10.096Z,10.00
2023-05-24T07:14:36.830Z,10.00
2023-05-24T07:17:04.476Z,10.00
2023-05-24T07:19:33.398Z,10.20
2023-05-24T07:22:00.177Z,10.30
2023-05-24T07:24:27.011Z,10.40
2023-05-24T07:26:53.868Z,10.60
2023-05-24T07:29:21.811Z,10.70
2023-05-24T07:31:48.842Z,10.80
2023-05-24T07:34:16.310Z,10.90
2023-05-24T07:36:43.056Z,10.80
2023-05-24T07:39:10.173Z,10.90
2023-05-24T07:41:37.258Z,11.10
2023-05-24T07:44:04.152Z,11.10
2023-05-24T07:46:30.987Z,11.20
2023-05-24T07:48:57.975Z,11.20
2023-05-24T07:51:25.570Z,11.30
2023-05-24T07:53:52.619Z,11.40
2023-05-24T07:56:19.482Z,11.30
2023-05-24T07:58:46.856Z,11.20
2023-05-24T08:01:14.278Z,11.10
2023-05-24T08:03:41.184Z,11.20
2023-05-24T08:06:08.436Z,11.00
2023-05-24T08:08:35.548Z,11.10
2023-05-24T08:11:02.336Z,11.20
2023-05-24T08:13:29.290Z,11.30
2023-05-24T08:15:56.458Z,11.30
2023-05-24T08:18:23.315Z,11.30
2023-05-24T08:20:50.188Z,11.30
2023-05-24T08:23:16.930Z,11.50
2023-05-24T08:25:44.172Z,11.60
2023-05-24T08:28:11.250Z,11.60
2023-05-24T08:30:38.610Z,11.80
2023-05-24T08:33:05.472Z,12.00
2023-05-24T08:35:32.265Z,12.10
2023-05-24T08:37:59.019Z,12.30
2023-05-24T08:40:25.877Z,12.40
2023-05-24T08:42:53.889Z,12.50
2023-05-24T08:45:22.552Z,12.40
2023-05-24T08:47:51.929Z,12.40
2023-05-24T08:50:20.800Z,12.50
2023-05-24T08:52:51.471Z,12.60
2023-05-24T08:55:18.765Z,12.60
2023-05-24T08:57:46.755Z,12.70
2023-05-24T09:00:14.371Z,12.70
2023-05-24T09:02:43.281Z,12.80
2023-05-24T09:05:16.843Z,12.80
2023-05-24T09:07:46.098Z,12.80
2023-05-24T09:10:13.073Z,12.80
2023-05-24T09:12:45.534Z,12.90
2023-05-24T09:15:12.742Z,13.00
2023-05-24T09:17:40.566Z,13.10
2023-05-24T09:20:10.605Z,13.30
2023-05-24T09:22:40.698Z,13.30
2023-05-24T09:25:09.999Z,13.40
2023-05-24T09:27:37.580Z,13.50
2023-05-24T09:30:08.863Z,13.70
2023-05-24T09:32:36.028Z,13.90
2023-05-24T09:35:02.854Z,14.20
2023-05-24T09:37:32.885Z,14.40
2023-05-24T09:40:00.502Z,14.60
2023-05-24T09:42:28.653Z,14.50
2023-05-24T09:45:09.112Z,14.70
2023-05-24T09:47:38.910Z,14.50
2023-05-24T09:50:16.147Z,14.20
2023-05-24T09:52:43.596Z,14.10
2023-05-24T09:55:20.435Z,13.90
2023-05-24T09:58:11.523Z,13.50
2023-05-24T10:00:42.486Z,13.10
2023-05-24T10:03:12.930Z,13.00
2023-05-24T10:05:45.152Z,13.00
2023-05-24T10:08:14.347Z,13.10
2023-05-24T10:10:42.669Z,13.30
2023-05-24T10:13:10.052Z,13.40
2023-05-24T10:15:36.884Z,13.40
2023-05-24T10:18:10.381Z,13.30
2023-05-24T10:20:38.600Z,13.20
2023-05-24T10:23:09.818Z,13.20
2023-05-24T10:25:41.903Z,13.30
2023-05-24T10:28:12.794Z,13.50
2023-05-24T10:30:57.524Z,13.70
2023-05-24T10:33:24.827Z,14.00
2023-05-24T10:35:54.396Z,14.40
2023-05-24T10:38:23.655Z,14.70
2023-05-24T10:40:51.355Z,14.90
2023-05-24T10:43:18.539Z,14.60
2023-05-24T10:45:50.451Z,14.40
2023-05-24T10:48:17.662Z,14.20
2023-05-24T10:50:44.959Z,14.40
2023-05-24T10:53:16.125Z,14.90
2023-05-24T10:56:06.730Z,15.10
2023-05-24T10:58:59.376Z,15.50
2023-05-24T11:01:32.015Z,15.60
2023-05-24T11:04:16.076Z,15.70
2023-05-24T11:06:55.539Z,16.00
2023-05-24T11:09:25.229Z,15.90
2023-05-24T11:11:57.627Z,16.10
2023-05-24T11:14:29.252Z,16.20
2023-05-24T11:16:57.417Z,16.40
2023-05-24T11:19:31.181Z,16.40
2023-05-24T11:21:58.903Z,16.70
2023-05-24T11:24:27.326Z,16.70
2023-05-24T11:26:54.192Z,17.10
2023-05-24T11:29:22.502Z,18.00
2023-05-24T11:32:07.538Z,18.80
2023-05-24T11:34:34.977Z,19.50
2023-05-24T11:37:03.440Z,20.60
2023-05-24T11:39:32.416Z,21.30
2023-05-24T11:42:01.277Z,21.20
2023-05-24T11:44:31.653Z,21.00
2023-05-24T11:47:02.420Z,20.80
2023-05-24T11:49:29.895Z,21.20
2023-05-24T11:51:59.374Z,21.30
2023-05-24T11:54:28.582Z,21.80
2023-05-24T11:56:56.063Z,22.10
2023-05-24T11:59:27.423Z,22.50
2023-05-24T12:02:03.448Z,22.80
2023-05-24T12:04:32.088Z,23.10
2023-05-24T12:06:59.516Z,23.20
2023-05-24T12:09:27.139Z,23.40
2023-05-24T12:11:54.560Z,22.70
2023-05-24T12:14:27.624Z,22.50
2023-05-24T12:16:57.685Z,22.80
2023-05-24T12:19:33.302Z,23.20
2023-05-24T12:22:05.121Z,23.20
2023-05-24T12:24:32.725Z,23.60
2023-05-24T12:27:08.767Z,24.00
2023-05-24T12:29:41.684Z,23.80
2023-05-24T12:32:13.883Z,23.40
2023-05-24T12:34:42.616Z,23.60
2023-05-24T12:37:12.051Z,23.10
2023-05-24T12:39:39.596Z,23.80
2023-05-24T12:42:06.682Z,24.20
2023-05-24T12:44:37.913Z,25.10
2023-05-24T12:47:07.526Z,25.50
2023-05-24T12:49:34.741Z,26.00
2023-05-24T12:52:04.141Z,26.70
2023-05-24T12:54:31.193Z,27.30
2023-05-24T12:57:03.077Z,27.50
2023-05-24T12:59:30.210Z,26.80
2023-05-24T13:01:57.456Z,26.40
2023-05-24T13:04:26.879Z,26.10
2023-05-24T13:06:55.555Z,26.10
2023-05-24T13:09:24.186Z,25.40
2023-05-24T13:11:52.326Z,23.40
2023-05-24T13:14:19.932Z,23.00
2023-05-24T13:16:47.522Z,23.60
2023-05-24T13:19:14.419Z,24.00
2023-05-24T13:21:41.612Z,24.80
2023-05-24T13:24:08.625Z,25.20
2023-05-24T13:26:37.583Z,25.90
2023-05-24T13:31:38.407Z,25.80
2023-05-24T13:34:06.132Z,25.70
2023-05-24T13:36:33.452Z,24.90
2023-05-24T13:39:13.367Z,25.00
2023-05-24T13:41:42.885Z,24.60
2023-05-24T13:44:11.383Z,25.40
2023-05-24T13:46:39.040Z,26.30
2023-05-24T13:49:07.142Z,26.50
2023-05-24T13:51:34.193Z,25.40
2023-05-24T13:54:01.574Z,24.30
2023-05-24T13:56:32.871Z,24.40
2023-05-24T13:59:02.325Z,25.10
2023-05-24T14:01:29.251Z,25.50
2023-05-24T14:03:56.010Z,25.10
2023-05-24T14:06:22.845Z,24.70
2023-05-24T14:08:49.904Z,24.40
2023-05-24T14:11:16.816Z,23.50
2023-05-24T14:14:43.021Z,22.70
2023-05-24T14:16:31.135Z,22.10
2023-05-24T14:18:58.539Z,21.70
2023-05-24T14:21:27.189Z,21.40
2023-05-24T14:23:54.386Z,21.30
2023-05-24T14:26:23.356Z,21.40
2023-05-24T14:28:51.363Z,21.20
2023-05-24T14:31:19.931Z,21.20
2023-05-24T14:33:46.703Z,21.80
2023-05-24T14:36:13.500Z,22.10
2023-05-24T14:38:41.487Z,21.90
2023-05-24T14:41:09.204Z,21.70
2023-05-24T14:43:37.562Z,21.60
2023-05-24T14:46:04.575Z,21.20
2023-05-24T14:48:31.405Z,20.90
2023-05-24T14:50:58.301Z,20.40
2023-05-24T14:53:25.270Z,20.20
2023-05-24T14:55:54.252Z,19.90
2023-05-24T14:58:21.173Z,20.00
2023-05-24T15:00:48.251Z,19.90
2023-05-24T15:03:15.520Z,19.70
2023-05-24T15:05:42.951Z,19.10
2023-05-24T15:08:11.377Z,18.50
2023-05-24T15:10:44.369Z,18.30
2023-05-24T15:13:11.675Z,17.80
2023-05-24T15:15:38.722Z,17.60
2023-05-24T15:18:06.726Z,17.40
2023-05-24T15:20:35.788Z,17.10
2023-05-24T15:23:03.778Z,16.90
2023-05-24T15:25:32.005Z,17.30
2023-05-24T15:27:58.875Z,17.30
2023-05-24T15:30:25.734Z,17.30
2023-05-24T15:32:52.603Z,17.10
2023-05-24T15:35:19.407Z,16.80
2023-05-24T15:37:46.207Z,16.50
2023-05-24T15:40:14.916Z,16.20
2023-05-24T15:42:41.964Z,16.20
2023-05-24T15:45:09.653Z,16.10
2023-05-24T15:47:40.152Z,16.20
2023-05-24T15:50:08.713Z,16.20
2023-05-24T15:52:36.010Z,16.10
2023-05-24T15:55:02.805Z,16.10
2023-05-24T15:57:31.387Z,16.50
2023-05-24T15:59:58.170Z,16.90
2023-05-24T16:02:25.151Z,17.10
2023-05-24T16:04:51.949Z,17.00
2023-05-24T16:07:19.516Z,17.20
2023-05-24T16:09:46.895Z,17.70
2023-05-24T16:12:13.653Z,17.70
2023-05-24T16:14:40.400Z,17.60
2023-05-24T16:17:07.324Z,17.20
2023-05-24T16:19:34.238Z,16.90
2023-05-24T16:22:00.989Z,16.50
2023-05-24T16:24:28.090Z,16.10
2023-05-24T16:26:56.749Z,15.70
2023-05-24T16:29:23.642Z,15.60
2023-05-24T16:31:50.902Z,15.40
2023-05-24T16:34:17.745Z,15.30
2023-05-24T16:36:47.236Z,15.20
2023-05-24T16:39:14.098Z,15.10
2023-05-24T16:41:40.917Z,14.90
2023-05-24T16:44:07.767Z,14.90
2023-05-24T16:46:34.974Z,15.00
2023-05-24T16:49:03.294Z,14.90
2023-05-24T16:51:30.262Z,14.90
2023-05-24T16:53:57.002Z,14.70
2023-05-24T16:56:23.769Z,14.70
2023-05-24T16:58:51.021Z,14.50
2023-05-24T17:01:17.904Z,14.50
2023-05-24T17:03:44.939Z,14.40
2023-05-24T17:06:11.838Z,14.40
2023-05-24T17:08:38.627Z,14.30
2023-05-24T17:11:07.045Z,14.40
2023-05-24T17:13:34.223Z,14.30
2023-05-24T17:16:03.801Z,14.30
2023-05-24T17:18:31.000Z,14.20
2023-05-24T17:21:04.210Z,14.20
2023-05-24T17:23:35.149Z,14.20
2023-05-24T17:26:02.823Z,14.20
2023-05-24T17:28:30.441Z,14.30
2023-05-24T17:30:59.382Z,14.30
2023-05-24T17:33:29.621Z,14.20
2023-05-24T17:35:57.207Z,14.10
2023-05-24T17:38:25.124Z,14.10
2023-05-24T17:40:58.924Z,14.10
2023-05-24T17:43:28.964Z,14.00
2023-05-24T17:46:03.995Z,14.00
2023-05-24T17:48:34.632Z,14.00
2023-05-24T17:51:03.599Z,14.10
2023-05-24T17:53:33.287Z,14.10
2023-05-24T17:56:01.685Z,14.00
2023-05-24T17:58:30.730Z,14.10
2023-05-24T18:00:57.587Z,14.00
2023-05-24T18:03:24.418Z,13.90
2023-05-24T18:05:51.212Z,14.00
2023-05-24T18:08:18.368Z,13.90
2023-05-24T18:10:45.689Z,13.90
2023-05-24T18:13:12.571Z,13.80
2023-05-24T18:15:39.362Z,13.80
2023-05-24T18:18:06.502Z,13.80
2023-05-24T18:20:33.777Z,13.80
2023-05-24T18:23:00.561Z,13.80
2023-05-24T18:25:27.388Z,13.70
2023-05-24T18:27:54.180Z,13.70
2023-05-24T18:30:21.016Z,13.60
2023-05-24T18:33:03.573Z,13.60
2023-05-24T18:35:32.072Z,13.50
2023-05-24T18:37:59.151Z,13.50
2023-05-24T18:40:25.984Z,13.40
2023-05-24T18:42:52.770Z,13.40
2023-05-24T18:45:20.747Z,13.30
2023-05-24T18:47:47.582Z,13.20
2023-05-24T18:50:14.491Z,13.20
2023-05-24T18:52:43.564Z,13.10
2023-05-24T18:55:10.776Z,13.20
2023-05-24T18:57:39.241Z,13.00
2023-05-24T19:00:07.042Z,13.00
2023-05-24T19:02:42.996Z,13.00
2023-05-24T19:05:10.004Z,12.90
2023-05-24T19:07:37.203Z,12.80
2023-05-24T19:10:04.529Z,12.70
2023-05-24T19:12:31.489Z,12.70
2023-05-24T19:14:58.340Z,12.60
2023-05-24T19:17:25.403Z,12.60
2023-05-24T19:19:52.377Z,12.50
2023-05-24T19:22:20.917Z,12.40
2023-05-24T19:24:47.742Z,12.30
2023-05-24T19:27:14.662Z,12.20
2023-05-24T19:29:41.461Z,12.10
2023-05-24T19:32:08.850Z,12.00
2023-05-24T19:34:37.019Z,12.00
2023-05-24T19:37:04.080Z,11.80
2023-05-24T19:39:30.884Z,11.70
2023-05-24T19:41:57.670Z,11.60
2023-05-24T19:44:24.413Z,11.50
2023-05-24T19:46:51.222Z,11.40
2023-05-24T19:49:18.023Z,11.30
2023-05-24T19:51:44.998Z,11.20
2023-05-24T19:54:12.734Z,11.10
2023-05-24T19:56:39.706Z,11.00
2023-05-24T19:59:07.200Z,10.90
2023-05-24T20:01:33.990Z,10.80
2023-05-24T20:04:00.907Z,10.70
2023-05-24T20:06:28.004Z,10.60
2023-05-24T20:08:57.648Z,10.50
2023-05-24T20:11:24.468Z,10.50
2023-05-24T20:13:52.535Z,10.40
2023-05-24T20:16:19.866Z,10.30
2023-05-24T20:18:46.879Z,10.20
2023-05-24T20:21:17.688Z,10.20
2023-05-24T20:23:44.530Z,10.20
2023-05-24T20:26:11.410Z,10.10
2023-05-24T20:28:38.148Z,10.00
2023-05-24T20:31:05.604Z,9.90
2023-05-24T20:33:33.463Z,9.90
2023-05-24T20:36:00.303Z,9.90
2023-05-24T20:38:27.044Z,9.90
2023-05-24T20:40:53.864Z,10.00
2023-05-24T20:43:20.812Z,10.00
2023-05-24T20:45:47.804Z,10.00
2023-05-24T20:48:15.029Z,10.00
2023-05-24T20:50:42.619Z,10.10
2023-05-24T20:53:09.404Z,10.10
2023-05-24T20:55:36.533Z,10.10
2023-05-24T20:58:03.354Z,10.00
2023-05-24T21:00:30.398Z,9.90
2023-05-24T21:02:57.251Z,9.90
2023-05-24T21:05:24.058Z,9.80
2023-05-24T21:07:51.206Z,9.80
2023-05-24T21:10:18.755Z,9.90
2023-05-24T21:12:47.794Z,9.90
2023-05-24T21:15:14.829Z,9.90
2023-05-24T21:17:41.730Z,9.90
2023-05-24T21:20:09.182Z,10.00
2023-05-24T21:22:35.985Z,10.00
2023-05-24T21:25:04.528Z,10.00
2023-05-24T21:27:31.349Z,10.10
2023-05-24T21:29:58.234Z,10.20
2023-05-24T21:32:25.118Z,10.30
2023-05-24T21:34:51.903Z,10.30
2023-05-24T21:37:18.679Z,10.30
2023-05-24T21:39:45.535Z,10.30
2023-05-24T21:42:12.318Z,10.30
2023-05-24T21:44:39.075Z,10.30
2023-05-24T21:47:05.868Z,10.30
2023-05-24T21:49:32.654Z,10.20
2023-05-24T21:51:59.456Z,10.20
2023-05-24T21:54:26.250Z,10.20
2023-05-24T21:56:53.121Z,10.10
2023-05-24T21:59:21.215Z,9.90
2023-05-24T22:01:48.492Z,9.90
2023-05-24T22:04:15.616Z,9.80
2023-05-24T22:06:44.695Z,9.60
2023-05-24T22:09:13.530Z,9.50
2023-05-24T22:11:41.216Z,9.40
2023-05-24T22:14:08.117Z,9.40
2023-05-24T22:16:34.935Z,9.30
2023-05-24T22:19:03.067Z,9.20
2023-05-24T22:21:33.713Z,9.20
2023-05-24T22:24:00.648Z,9.20
2023-05-24T22:26:27.804Z,9.10
2023-05-24T22:29:00.460Z,9.10
2023-05-24T22:31:30.828Z,9.10
2023-05-24T22:34:00.992Z,9.10
2023-05-24T22:36:37.635Z,9.10
2023-05-24T22:39:05.377Z,9.10
2023-05-24T22:41:32.366Z,9.10
2023-05-24T22:43:59.651Z,9.10
2023-05-24T22:46:26.550Z,9.10
2023-05-24T22:48:53.528Z,9.10
2023-05-24T22:51:20.909Z,9.10
2023-05-24T22:53:48.829Z,9.10
2023-05-24T22:56:17.728Z,9.10
2023-05-24T22:58:44.603Z,9.10
2023-05-24T23:01:11.537Z,9.10
2023-05-24T23:03:38.483Z,9.20
2023-05-24T23:06:05.424Z,9.30
2023-05-24T23:08:33.066Z,9.40
2023-05-24T23:11:00.461Z,9.40
2023-05-24T23:13:35.848Z,9.50
2023-05-24T23:16:03.556Z,9.50
2023-05-24T23:18:32.731Z,9.50
2023-05-24T23:21:00.852Z,9.50
2023-05-24T23:23:27.647Z,9.40
2023-05-24T23:25:54.438Z,9.40
2023-05-24T23:28:21.243Z,9.40
2023-05-24T23:30:48.055Z,9.40
2023-05-24T23:33:14.954Z,9.40
2023-05-24T23:35:42.041Z,9.40
2023-05-24T23:38:09.000Z,9.30
2023-05-24T23:40:36.509Z,9.20
2023-05-24T23:43:04.005Z,9.20
2023-05-24T23:45:31.153Z,9.20
2023-05-24T23:47:58.686Z,9.20
2023-05-24T23:50:26.612Z,9.20
2023-05-24T23:52:54.365Z,9.30
2023-05-24T23:55:23.039Z,9.30
2023-05-24T23:57:50.184Z,9.40
